createdAt,value
2023-03-26T00:00:36.188Z,86.00
2023-03-26T00:01:36.200Z,85.90
2023-03-26T00:02:36.232Z,85.90
2023-03-26T00:03:36.092Z,86.21
2023-03-26T00:04:36.113Z,86.21
2023-03-26T00:05:36.149Z,86.83
2023-03-26T00:06:36.101Z,86.72
2023-03-26T00:07:36.071Z,86.72
2023-03-26T00:08:36.068Z,86.83
2023-03-26T00:09:36.021Z,86.83
2023-03-26T00:10:36.044Z,87.04
2023-03-26T00:11:35.993Z,86.83
2023-03-26T00:12:36.036Z,86.83
2023-03-26T00:13:36.002Z,86.62
2023-03-26T00:14:35.988Z,86.72
2023-03-26T00:15:35.984Z,86.93
2023-03-26T00:16:36.025Z,86.42
2023-03-26T00:17:35.987Z,86.52
2023-03-26T00:18:35.954Z,86.42
2023-03-26T00:19:35.918Z,86.21
2023-03-26T00:20:35.928Z,85.90
2023-03-26T00:21:35.909Z,85.80
2023-03-26T00:22:35.909Z,86.00
2023-03-26T00:23:35.885Z,86.00
2023-03-26T00:24:35.878Z,86.11
2023-03-26T00:25:36.810Z,86.58
2023-03-26T00:26:35.878Z,86.42
2023-03-26T00:27:35.889Z,86.72
2023-03-26T00:28:35.842Z,86.42
2023-03-26T00:29:35.791Z,86.00
2023-03-26T00:30:36.879Z,86.11
2023-03-26T00:31:35.779Z,86.00
2023-03-26T00:32:35.798Z,86.11
2023-03-26T00:33:35.777Z,86.00
2023-03-26T00:34:35.791Z,85.80
2023-03-26T00:35:35.736Z,85.60
2023-03-26T00:36:35.782Z,85.49
2023-03-26T00:37:35.712Z,85.35
2023-03-26T00:38:35.736Z,85.14
2023-03-26T00:39:35.722Z,84.94
2023-03-26T00:40:35.726Z,84.74
2023-03-26T00:41:35.694Z,84.53
2023-03-26T00:42:35.697Z,84.42
2023-03-26T00:43:35.649Z,84.12
2023-03-26T00:44:35.678Z,84.12
2023-03-26T00:45:35.644Z,84.22
2023-03-26T00:46:35.685Z,84.32
2023-03-26T00:47:35.634Z,84.32
2023-03-26T00:48:44.560Z,84.42
2023-03-26T00:49:36.579Z,84.53
2023-03-26T00:50:35.613Z,84.74
2023-03-26T00:51:35.618Z,84.39
2023-03-26T00:52:36.522Z,84.49
2023-03-26T00:53:35.544Z,85.00
2023-03-26T00:54:35.566Z,84.63
2023-03-26T00:55:35.528Z,84.42
2023-03-26T00:56:35.561Z,84.42
2023-03-26T00:57:36.397Z,84.63
2023-03-26T00:58:35.511Z,84.53
2023-03-26T00:59:35.486Z,84.63
2023-03-26T01:00:44.668Z,84.63
2023-03-26T01:01:35.493Z,84.63
2023-03-26T01:02:35.539Z,84.53
2023-03-26T01:03:35.592Z,84.32
2023-03-26T01:04:35.630Z,84.22
2023-03-26T01:05:35.402Z,84.32
2023-03-26T01:06:35.430Z,84.63
2023-03-26T01:07:35.400Z,84.94
2023-03-26T01:08:35.418Z,84.84
2023-03-26T01:09:35.388Z,84.63
2023-03-26T01:10:35.400Z,84.53
2023-03-26T01:11:35.358Z,84.53
2023-03-26T01:12:35.383Z,84.53
2023-03-26T01:13:35.337Z,84.74
2023-03-26T01:14:35.337Z,84.63
2023-03-26T01:15:35.342Z,84.63
2023-03-26T01:16:35.325Z,84.42
2023-03-26T01:17:35.312Z,84.84
2023-03-26T01:18:35.303Z,84.74
2023-03-26T01:19:35.285Z,84.63
2023-03-26T01:20:35.259Z,84.74
2023-03-26T01:21:35.239Z,84.84
2023-03-26T01:22:35.269Z,84.84
2023-03-26T01:23:35.198Z,84.84
2023-03-26T01:24:35.257Z,84.84
2023-03-26T01:25:35.190Z,85.14
2023-03-26T01:26:35.200Z,84.94
2023-03-26T01:27:35.179Z,85.04
2023-03-26T01:28:35.183Z,85.14
2023-03-26T01:29:35.163Z,85.14
2023-03-26T01:30:35.189Z,85.04
2023-03-26T01:31:35.185Z,84.94
2023-03-26T01:32:35.204Z,84.84
2023-03-26T01:33:35.232Z,84.74
2023-03-26T01:34:35.156Z,84.32
2023-03-26T01:35:35.156Z,84.32
2023-03-26T01:36:35.114Z,84.42
2023-03-26T01:37:36.041Z,84.01
2023-03-26T01:38:35.073Z,83.81
2023-03-26T01:39:35.981Z,83.61
2023-03-26T01:40:35.025Z,83.81
2023-03-26T01:41:34.996Z,83.81
2023-03-26T01:42:35.051Z,83.81
2023-03-26T01:43:35.063Z,83.50
2023-03-26T01:44:34.998Z,83.50
2023-03-26T01:45:35.001Z,83.50
2023-03-26T01:46:35.035Z,83.40
2023-03-26T01:47:35.767Z,83.50
2023-03-26T01:48:34.972Z,84.01
2023-03-26T01:49:34.939Z,83.50
2023-03-26T01:50:35.732Z,83.36
2023-03-26T01:51:35.696Z,83.46
2023-03-26T01:52:34.942Z,83.67
2023-03-26T01:53:35.690Z,83.67
2023-03-26T01:54:35.707Z,83.81
2023-03-26T01:55:35.761Z,83.91
2023-03-26T01:56:35.864Z,83.81
2023-03-26T01:57:35.705Z,83.56
2023-03-26T01:58:36.311Z,83.46
2023-03-26T01:59:36.256Z,83.77
2023-03-26T02:00:34.839Z,83.56
2023-03-26T02:01:35.148Z,84.22
2023-03-26T02:02:35.927Z,84.12
2023-03-26T02:03:34.912Z,84.22
2023-03-26T02:04:34.877Z,84.32
2023-03-26T02:05:34.746Z,84.42
2023-03-26T02:06:34.756Z,84.53
2023-03-26T02:07:34.721Z,84.42
2023-03-26T02:08:34.734Z,84.22
2023-03-26T02:09:34.711Z,84.22
2023-03-26T02:10:34.784Z,84.01
2023-03-26T02:11:35.871Z,84.22
2023-03-26T02:12:34.688Z,84.32
2023-03-26T02:13:34.973Z,84.42
2023-03-26T02:14:34.667Z,84.22
2023-03-26T02:15:34.612Z,84.22
2023-03-26T02:16:34.711Z,84.22
2023-03-26T02:17:34.616Z,84.12
2023-03-26T02:18:34.633Z,84.22
2023-03-26T02:19:34.581Z,84.08
2023-03-26T02:20:34.590Z,84.28
2023-03-26T02:21:34.805Z,84.28
2023-03-26T02:22:34.574Z,84.39
2023-03-26T02:23:34.535Z,84.39
2023-03-26T02:24:35.521Z,84.74
2023-03-26T02:25:35.462Z,84.94
2023-03-26T02:26:36.486Z,85.55
2023-03-26T02:27:34.511Z,85.97
2023-03-26T02:28:34.496Z,86.27
2023-03-26T02:29:34.460Z,86.48
2023-03-26T02:30:34.499Z,86.58
2023-03-26T02:31:34.462Z,86.79
2023-03-26T02:32:34.526Z,86.89
2023-03-26T02:33:34.415Z,86.68
2023-03-26T02:34:34.437Z,86.48
2023-03-26T02:35:34.509Z,86.17
2023-03-26T02:36:34.461Z,86.07
2023-03-26T02:37:34.379Z,86.38
2023-03-26T02:38:34.368Z,86.58
2023-03-26T02:39:34.365Z,86.89
2023-03-26T02:40:34.381Z,86.89
2023-03-26T02:41:34.355Z,86.79
2023-03-26T02:42:34.367Z,87.20
2023-03-26T02:43:34.317Z,87.30
2023-03-26T02:44:34.302Z,87.20
2023-03-26T02:45:34.368Z,87.20
2023-03-26T02:46:34.300Z,86.99
2023-03-26T02:47:34.331Z,87.20
2023-03-26T02:48:34.272Z,87.51
2023-03-26T02:49:34.228Z,88.02
2023-03-26T02:50:34.234Z,88.17
2023-03-26T02:51:34.236Z,88.47
2023-03-26T02:52:34.223Z,88.89
2023-03-26T02:53:34.184Z,88.78
2023-03-26T02:54:34.785Z,88.98
2023-03-26T02:55:34.180Z,89.19
2023-03-26T02:56:34.230Z,89.19
2023-03-26T02:57:34.140Z,88.98
2023-03-26T02:58:34.177Z,89.19
2023-03-26T02:59:34.117Z,89.40
2023-03-26T03:00:34.151Z,89.29
2023-03-26T03:01:35.384Z,89.19
2023-03-26T03:02:34.207Z,89.29
2023-03-26T03:03:34.112Z,89.29
2023-03-26T03:04:34.085Z,89.29
2023-03-26T03:05:34.084Z,89.40
2023-03-26T03:06:34.050Z,89.40
2023-03-26T03:07:34.096Z,89.29
2023-03-26T03:08:34.074Z,88.68
2023-03-26T03:09:34.034Z,88.06
2023-03-26T03:10:34.023Z,87.96
2023-03-26T03:11:33.997Z,88.31
2023-03-26T03:12:34.021Z,87.90
2023-03-26T03:13:33.983Z,87.79
2023-03-26T03:14:33.973Z,87.79
2023-03-26T03:15:33.955Z,87.90
2023-03-26T03:16:33.989Z,88.10
2023-03-26T03:17:33.980Z,88.31
2023-03-26T03:18:33.940Z,88.72
2023-03-26T03:19:33.899Z,88.31
2023-03-26T03:20:33.892Z,88.20
2023-03-26T03:21:33.873Z,88.41
2023-03-26T03:22:33.880Z,88.00
2023-03-26T03:23:33.840Z,87.90
2023-03-26T03:24:33.870Z,88.10
2023-03-26T03:25:33.847Z,87.90
2023-03-26T03:26:33.862Z,88.10
2023-03-26T03:27:34.796Z,88.00
2023-03-26T03:28:33.860Z,88.10
2023-03-26T03:29:33.780Z,88.20
2023-03-26T03:30:33.816Z,88.41
2023-03-26T03:31:33.752Z,88.62
2023-03-26T03:32:33.839Z,88.62
2023-03-26T03:33:33.734Z,88.00
2023-03-26T03:34:33.760Z,87.79
2023-03-26T03:35:33.816Z,88.00
2023-03-26T03:36:33.724Z,88.20
2023-03-26T03:37:33.697Z,87.79
2023-03-26T03:38:33.704Z,87.79
2023-03-26T03:39:33.671Z,88.10
2023-03-26T03:40:33.710Z,88.00
2023-03-26T03:41:33.645Z,88.00
2023-03-26T03:42:33.668Z,87.79
2023-03-26T03:43:33.629Z,87.90
2023-03-26T03:44:33.643Z,87.69
2023-03-26T03:45:33.645Z,87.59
2023-03-26T03:46:33.768Z,87.59
2023-03-26T03:47:33.668Z,87.38
2023-03-26T03:48:33.715Z,87.49
2023-03-26T03:49:33.571Z,87.69
2023-03-26T03:50:35.613Z,87.79
2023-03-26T03:51:33.619Z,87.49
2023-03-26T03:52:33.529Z,87.38
2023-03-26T03:53:33.597Z,87.28
2023-03-26T03:54:33.511Z,87.18
2023-03-26T03:55:33.566Z,87.38
2023-03-26T03:56:33.650Z,87.28
2023-03-26T03:57:33.515Z,87.49
2023-03-26T03:58:33.464Z,87.49
2023-03-26T03:59:33.470Z,87.38
2023-03-26T04:00:33.473Z,87.42
2023-03-26T04:01:33.452Z,87.79
2023-03-26T04:02:33.477Z,88.00
2023-03-26T04:03:34.267Z,88.10
2023-03-26T04:04:33.406Z,87.90
2023-03-26T04:05:33.444Z,87.69
2023-03-26T04:06:33.473Z,87.59
2023-03-26T04:07:33.418Z,87.49
2023-03-26T04:08:33.328Z,87.32
2023-03-26T04:09:33.348Z,87.63
2023-03-26T04:10:33.317Z,87.42
2023-03-26T04:11:34.305Z,87.59
2023-03-26T04:12:33.308Z,87.84
2023-03-26T04:13:33.381Z,87.84
2023-03-26T04:14:33.277Z,87.73
2023-03-26T04:15:33.290Z,87.63
2023-03-26T04:16:33.270Z,87.84
2023-03-26T04:17:33.394Z,87.59
2023-03-26T04:18:33.297Z,87.59
2023-03-26T04:19:33.227Z,87.59
2023-03-26T04:20:33.228Z,87.49
2023-03-26T04:21:33.206Z,87.38
2023-03-26T04:22:33.225Z,87.38
2023-03-26T04:23:33.183Z,87.49
2023-03-26T04:24:33.185Z,87.38
2023-03-26T04:25:33.197Z,87.49
2023-03-26T04:26:33.129Z,87.49
2023-03-26T04:27:33.161Z,87.69
2023-03-26T04:28:33.111Z,87.38
2023-03-26T04:29:33.123Z,87.38
2023-03-26T04:30:33.099Z,87.49
2023-03-26T04:31:33.177Z,87.49
2023-03-26T04:32:33.087Z,88.00
2023-03-26T04:33:33.122Z,88.10
2023-03-26T04:34:33.038Z,87.90
2023-03-26T04:35:33.105Z,87.90
2023-03-26T04:36:33.040Z,88.10
2023-03-26T04:37:33.040Z,88.00
2023-03-26T04:38:32.989Z,87.90
2023-03-26T04:39:33.002Z,88.10
2023-03-26T04:40:33.003Z,87.90
2023-03-26T04:41:32.981Z,87.69
2023-03-26T04:42:32.955Z,87.69
2023-03-26T04:43:32.973Z,87.90
2023-03-26T04:44:32.975Z,87.79
2023-03-26T04:45:32.969Z,87.90
2023-03-26T04:46:32.966Z,88.00
2023-03-26T04:47:32.928Z,87.90
2023-03-26T04:48:32.884Z,87.90
2023-03-26T04:49:32.932Z,87.79
2023-03-26T04:50:32.865Z,87.69
2023-03-26T04:51:32.896Z,87.59
2023-03-26T04:52:32.844Z,87.59
2023-03-26T04:53:32.877Z,87.69
2023-03-26T04:54:32.829Z,87.65
2023-03-26T04:55:32.840Z,87.75
2023-03-26T04:56:32.835Z,87.55
2023-03-26T04:57:32.855Z,87.55
2023-03-26T04:58:32.921Z,87.45
2023-03-26T04:59:32.799Z,87.45
2023-03-26T05:00:32.769Z,87.45
2023-03-26T05:01:32.767Z,87.45
2023-03-26T05:02:32.846Z,87.55
2023-03-26T05:03:32.779Z,87.65
2023-03-26T05:04:32.737Z,87.65
2023-03-26T05:05:32.717Z,87.45
2023-03-26T05:06:32.801Z,87.34
2023-03-26T05:07:32.686Z,87.45
2023-03-26T05:08:32.673Z,87.55
2023-03-26T05:09:32.708Z,87.55
2023-03-26T05:10:32.657Z,87.45
2023-03-26T05:11:32.663Z,87.45
2023-03-26T05:12:32.618Z,87.45
2023-03-26T05:13:32.623Z,87.45
2023-03-26T05:14:32.599Z,87.34
2023-03-26T05:15:32.639Z,87.24
2023-03-26T05:16:32.604Z,87.24
2023-03-26T05:17:32.591Z,87.45
2023-03-26T05:18:32.554Z,87.24
2023-03-26T05:19:32.590Z,87.34
2023-03-26T05:20:32.544Z,87.24
2023-03-26T05:21:32.549Z,87.24
2023-03-26T05:22:32.501Z,87.24
2023-03-26T05:23:32.521Z,87.13
2023-03-26T05:24:32.494Z,87.13
2023-03-26T05:25:32.535Z,87.24
2023-03-26T05:26:32.445Z,87.24
2023-03-26T05:27:32.496Z,87.04
2023-03-26T05:28:32.434Z,87.24
2023-03-26T05:29:32.462Z,87.34
2023-03-26T05:30:32.545Z,87.34
2023-03-26T05:31:32.419Z,87.40
2023-03-26T05:32:32.465Z,87.40
2023-03-26T05:33:32.677Z,87.55
2023-03-26T05:34:32.381Z,87.40
2023-03-26T05:35:32.425Z,87.24
2023-03-26T05:36:32.386Z,87.40
2023-03-26T05:37:32.402Z,87.30
2023-03-26T05:38:32.312Z,87.30
2023-03-26T05:39:32.407Z,87.40
2023-03-26T05:40:32.410Z,87.51
2023-03-26T05:41:32.305Z,87.30
2023-03-26T05:42:32.276Z,86.99
2023-03-26T05:43:32.441Z,87.10
2023-03-26T05:44:32.253Z,86.89
2023-03-26T05:45:32.293Z,86.79
2023-03-26T05:46:32.291Z,86.79
2023-03-26T05:47:32.341Z,86.79
2023-03-26T05:48:32.221Z,86.68
2023-03-26T05:49:32.245Z,86.68
2023-03-26T05:50:32.200Z,86.79
2023-03-26T05:51:32.239Z,86.68
2023-03-26T05:52:32.217Z,86.99
2023-03-26T05:53:32.191Z,86.89
2023-03-26T05:54:32.138Z,86.68
2023-03-26T05:55:32.166Z,86.68
2023-03-26T05:56:32.214Z,86.68
2023-03-26T05:57:32.152Z,86.89
2023-03-26T05:58:32.098Z,87.20
2023-03-26T05:59:32.147Z,87.51
2023-03-26T06:00:32.090Z,87.61
2023-03-26T06:01:32.099Z,87.61
2023-03-26T06:02:32.075Z,87.51
2023-03-26T06:03:32.195Z,87.40
2023-03-26T06:04:32.370Z,87.40
2023-03-26T06:05:32.061Z,87.40
2023-03-26T06:06:33.260Z,87.40
2023-03-26T06:07:32.029Z,87.30
2023-03-26T06:08:31.987Z,87.30
2023-03-26T06:09:32.027Z,87.20
2023-03-26T06:10:31.953Z,87.20
2023-03-26T06:11:32.130Z,87.20
2023-03-26T06:12:32.004Z,87.30
2023-03-26T06:13:31.946Z,87.30
2023-03-26T06:14:31.940Z,87.20
2023-03-26T06:15:31.967Z,87.05
2023-03-26T06:16:31.957Z,86.85
2023-03-26T06:17:31.927Z,86.58
2023-03-26T06:18:31.910Z,86.65
2023-03-26T06:19:31.913Z,86.75
2023-03-26T06:20:31.851Z,86.75
2023-03-26T06:21:31.851Z,86.65
2023-03-26T06:22:31.831Z,86.54
2023-03-26T06:23:31.860Z,86.24
2023-03-26T06:24:31.815Z,86.33
2023-03-26T06:25:31.819Z,86.33
2023-03-26T06:26:31.798Z,86.33
2023-03-26T06:27:31.795Z,86.13
2023-03-26T06:28:31.802Z,85.93
2023-03-26T06:29:31.821Z,86.24
2023-03-26T06:30:31.736Z,86.33
2023-03-26T06:31:31.790Z,86.33
2023-03-26T06:32:31.777Z,85.93
2023-03-26T06:33:31.723Z,85.72
2023-03-26T06:34:31.723Z,85.62
2023-03-26T06:35:31.712Z,85.89
2023-03-26T06:36:31.673Z,85.99
2023-03-26T06:37:31.693Z,85.99
2023-03-26T06:38:31.658Z,85.89
2023-03-26T06:39:31.673Z,85.99
2023-03-26T06:40:31.645Z,85.89
2023-03-26T06:41:31.664Z,85.78
2023-03-26T06:43:08.225Z,85.99
2023-03-26T06:43:32.616Z,85.38
2023-03-26T06:44:31.612Z,85.38
2023-03-26T06:45:31.606Z,85.47
2023-03-26T06:46:31.589Z,85.47
2023-03-26T06:47:31.616Z,85.58
2023-03-26T06:48:31.530Z,85.68
2023-03-26T06:49:31.540Z,85.64
2023-03-26T06:50:31.527Z,85.64
2023-03-26T06:51:31.550Z,85.85
2023-03-26T06:52:31.524Z,85.64
2023-03-26T06:53:32.436Z,85.44
2023-03-26T06:54:31.526Z,85.23
2023-03-26T06:55:31.480Z,84.92
2023-03-26T06:56:31.475Z,84.61
2023-03-26T06:57:31.521Z,84.82
2023-03-26T06:58:31.435Z,84.61
2023-03-26T06:59:31.439Z,84.41
2023-03-26T07:00:32.358Z,84.06
2023-03-26T07:01:32.397Z,84.06
2023-03-26T07:02:31.512Z,84.37
2023-03-26T07:03:31.505Z,84.47
2023-03-26T07:04:32.320Z,84.37
2023-03-26T07:05:31.368Z,84.33
2023-03-26T07:06:31.342Z,84.03
2023-03-26T07:07:31.371Z,83.61
2023-03-26T07:08:31.334Z,83.41
2023-03-26T07:09:31.322Z,83.20
2023-03-26T07:10:31.328Z,83.20
2023-03-26T07:11:31.382Z,82.90
2023-03-26T07:12:31.279Z,82.69
2023-03-26T07:13:31.307Z,83.00
2023-03-26T07:14:31.255Z,83.00
2023-03-26T07:15:31.257Z,82.79
2023-03-26T07:16:31.302Z,82.49
2023-03-26T07:17:31.244Z,82.69
2023-03-26T07:18:31.211Z,82.69
2023-03-26T07:19:31.349Z,82.86
2023-03-26T07:20:31.213Z,83.06
2023-03-26T07:21:31.179Z,83.37
2023-03-26T07:22:31.143Z,83.61
2023-03-26T07:23:31.158Z,83.61
2023-03-26T07:24:31.132Z,83.61
2023-03-26T07:25:31.156Z,83.72
2023-03-26T07:26:31.126Z,83.61
2023-03-26T07:27:31.182Z,83.37
2023-03-26T07:28:31.088Z,83.20
2023-03-26T07:29:31.105Z,83.10
2023-03-26T07:30:31.108Z,83.00
2023-03-26T07:31:31.126Z,83.17
2023-03-26T07:32:31.090Z,83.47
2023-03-26T07:33:31.072Z,83.61
2023-03-26T07:34:31.059Z,83.72
2023-03-26T07:35:31.049Z,83.88
2023-03-26T07:36:30.982Z,84.19
2023-03-26T07:37:31.059Z,84.29
2023-03-26T07:38:30.961Z,84.91
2023-03-26T07:39:30.990Z,84.80
2023-03-26T07:40:30.980Z,84.70
2023-03-26T07:41:30.967Z,84.70
2023-03-26T07:42:30.943Z,84.91
2023-03-26T07:43:30.995Z,85.01
2023-03-26T07:44:30.912Z,84.80
2023-03-26T07:45:30.955Z,84.39
2023-03-26T07:46:30.919Z,84.09
2023-03-26T07:47:31.000Z,83.88
2023-03-26T07:48:30.871Z,83.74
2023-03-26T07:49:30.913Z,83.54
2023-03-26T07:50:31.003Z,83.84
2023-03-26T07:51:30.880Z,83.95
2023-03-26T07:52:30.820Z,84.05
2023-03-26T07:53:30.849Z,84.05
2023-03-26T07:54:31.517Z,84.25
2023-03-26T07:55:30.806Z,84.05
2023-03-26T07:56:30.921Z,83.74
2023-03-26T07:57:30.884Z,83.74
2023-03-26T07:58:30.751Z,83.54
2023-03-26T07:59:30.839Z,83.64
2023-03-26T08:00:30.884Z,83.50
2023-03-26T08:01:30.757Z,83.39
2023-03-26T08:02:30.722Z,83.09
2023-03-26T08:03:30.878Z,83.29
2023-03-26T08:04:30.788Z,83.19
2023-03-26T08:05:30.742Z,83.39
2023-03-26T08:06:30.704Z,83.25
2023-03-26T08:07:30.809Z,83.25
2023-03-26T08:08:30.820Z,82.84
2023-03-26T08:09:30.689Z,82.75
2023-03-26T08:10:30.628Z,82.64
2023-03-26T08:11:30.629Z,82.84
2023-03-26T08:12:30.657Z,83.15
2023-03-26T08:13:30.637Z,83.15
2023-03-26T08:14:30.578Z,83.15
2023-03-26T08:15:30.571Z,82.54
2023-03-26T08:16:30.586Z,82.13
2023-03-26T08:17:31.391Z,82.34
2023-03-26T08:18:30.565Z,82.03
2023-03-26T08:19:31.247Z,82.23
2023-03-26T08:20:30.519Z,82.23
2023-03-26T08:21:30.477Z,82.03
2023-03-26T08:22:30.492Z,82.03
2023-03-26T08:23:30.485Z,81.82
2023-03-26T08:24:30.487Z,81.82
2023-03-26T08:25:30.436Z,81.72
2023-03-26T08:26:30.455Z,81.72
2023-03-26T08:27:30.473Z,81.58
2023-03-26T08:28:30.534Z,81.58
2023-03-26T08:29:30.416Z,81.48
2023-03-26T08:30:30.416Z,81.48
2023-03-26T08:31:30.431Z,81.07
2023-03-26T08:32:30.432Z,80.46
2023-03-26T08:33:30.359Z,80.56
2023-03-26T08:34:30.415Z,80.97
2023-03-26T08:35:30.383Z,80.35
2023-03-26T08:36:30.329Z,80.35
2023-03-26T08:37:30.290Z,80.52
2023-03-26T08:38:30.393Z,80.52
2023-03-26T08:39:30.348Z,80.42
2023-03-26T08:40:30.352Z,80.52
2023-03-26T08:41:30.277Z,80.83
2023-03-26T08:42:30.304Z,80.42
2023-03-26T08:43:30.318Z,80.25
2023-03-26T08:44:30.265Z,80.56
2023-03-26T08:45:30.220Z,80.66
2023-03-26T08:46:30.281Z,80.46
2023-03-26T08:47:30.352Z,80.46
2023-03-26T08:48:30.239Z,80.83
2023-03-26T08:49:30.182Z,80.83
2023-03-26T08:50:30.182Z,80.83
2023-03-26T08:51:30.185Z,80.52
2023-03-26T08:52:30.312Z,80.52
2023-03-26T08:53:30.191Z,80.25
2023-03-26T08:54:30.123Z,80.15
2023-03-26T08:55:30.132Z,80.15
2023-03-26T08:56:30.247Z,80.56
2023-03-26T08:57:30.099Z,80.56
2023-03-26T08:58:30.084Z,80.25
2023-03-26T08:59:30.074Z,80.56
2023-03-26T09:00:30.104Z,81.17
2023-03-26T09:01:30.107Z,81.17
2023-03-26T09:02:30.147Z,81.07
2023-03-26T09:03:30.179Z,81.07
2023-03-26T09:04:30.115Z,80.93
2023-03-26T09:05:30.223Z,80.73
2023-03-26T09:06:30.000Z,80.21
2023-03-26T09:07:29.948Z,80.32
2023-03-26T09:08:30.395Z,80.11
2023-03-26T09:09:29.936Z,80.11
2023-03-26T09:10:29.972Z,80.21
2023-03-26T09:11:29.905Z,80.11
2023-03-26T09:12:29.948Z,79.91
2023-03-26T09:13:29.904Z,79.91
2023-03-26T09:14:29.951Z,79.70
2023-03-26T09:15:29.962Z,79.60
2023-03-26T09:16:29.989Z,79.91
2023-03-26T09:17:29.969Z,80.01
2023-03-26T09:18:29.956Z,80.21
2023-03-26T09:19:29.852Z,79.91
2023-03-26T09:20:29.871Z,79.91
2023-03-26T09:21:29.826Z,80.11
2023-03-26T09:22:29.990Z,80.11
2023-03-26T09:23:30.764Z,80.01
2023-03-26T09:24:29.821Z,79.80
2023-03-26T09:25:29.757Z,79.80
2023-03-26T09:26:29.856Z,80.32
2023-03-26T09:27:29.733Z,80.42
2023-03-26T09:28:29.749Z,80.66
2023-03-26T09:29:32.271Z,80.76
2023-03-26T09:30:29.794Z,80.56
2023-03-26T09:31:29.813Z,80.56
2023-03-26T09:32:29.724Z,80.76
2023-03-26T09:33:29.691Z,80.97
2023-03-26T09:34:29.680Z,81.07
2023-03-26T09:35:29.677Z,81.68
2023-03-26T09:36:29.650Z,81.88
2023-03-26T09:37:29.661Z,81.99
2023-03-26T09:38:29.723Z,81.88
2023-03-26T09:39:29.718Z,82.09
2023-03-26T09:40:29.604Z,81.99
2023-03-26T09:41:29.744Z,81.99
2023-03-26T09:42:29.665Z,81.88
2023-03-26T09:43:29.573Z,82.09
2023-03-26T09:44:29.636Z,81.68
2023-03-26T09:45:29.578Z,81.27
2023-03-26T09:46:29.561Z,81.48
2023-03-26T09:47:29.503Z,81.58
2023-03-26T09:48:29.513Z,81.88
2023-03-26T09:49:29.499Z,81.82
2023-03-26T09:50:29.496Z,81.82
2023-03-26T09:51:29.464Z,81.72
2023-03-26T09:52:29.462Z,81.31
2023-03-26T09:53:29.462Z,81.21
2023-03-26T09:54:29.442Z,81.31
2023-03-26T09:55:29.415Z,81.62
2023-03-26T09:56:29.436Z,81.62
2023-03-26T09:57:29.441Z,81.72
2023-03-26T09:58:29.397Z,81.41
2023-03-26T09:59:29.440Z,81.72
2023-03-26T10:00:29.399Z,81.72
2023-03-26T10:01:29.415Z,81.51
2023-03-26T10:02:46.337Z,81.51
2023-03-26T10:03:30.380Z,81.82
2023-03-26T10:04:29.358Z,81.82
2023-03-26T10:05:29.342Z,82.23
2023-03-26T10:06:30.298Z,82.43
2023-03-26T10:07:29.278Z,82.43
2023-03-26T10:08:30.898Z,82.54
2023-03-26T10:09:29.250Z,82.54
2023-03-26T10:10:29.308Z,82.64
2023-03-26T10:11:29.224Z,82.64
2023-03-26T10:12:29.283Z,82.64
2023-03-26T10:13:29.199Z,82.34
2023-03-26T10:14:29.249Z,82.64
2023-03-26T10:15:29.329Z,82.95
2023-03-26T10:16:29.224Z,83.15
2023-03-26T10:17:29.215Z,83.25
2023-03-26T10:18:29.990Z,82.75
2023-03-26T10:19:29.232Z,82.75
2023-03-26T10:20:29.159Z,83.36
2023-03-26T10:21:30.093Z,83.66
2023-03-26T10:22:29.202Z,84.17
2023-03-26T10:23:29.117Z,83.97
2023-03-26T10:24:29.378Z,83.97
2023-03-26T10:25:29.241Z,83.66
2023-03-26T10:26:29.079Z,83.56
2023-03-26T10:27:29.157Z,83.25
2023-03-26T10:28:29.122Z,82.75
2023-03-26T10:29:29.017Z,82.54
2023-03-26T10:30:29.368Z,82.54
2023-03-26T10:31:28.999Z,82.43
2023-03-26T10:32:29.045Z,82.54
2023-03-26T10:33:28.987Z,82.64
2023-03-26T10:34:29.669Z,82.64
2023-03-26T10:35:29.052Z,82.84
2023-03-26T10:36:28.993Z,83.15
2023-03-26T10:37:28.937Z,83.36
2023-03-26T10:38:29.067Z,84.07
2023-03-26T10:39:37.653Z,84.69
2023-03-26T10:40:30.094Z,85.10
2023-03-26T10:41:28.891Z,84.99
2023-03-26T10:42:28.943Z,85.50
2023-03-26T10:43:28.880Z,85.75
2023-03-26T10:44:28.938Z,85.75
2023-03-26T10:45:28.885Z,86.26
2023-03-26T10:46:28.931Z,86.46
2023-03-26T10:47:29.078Z,86.46
2023-03-26T10:48:28.875Z,86.46
2023-03-26T10:49:28.804Z,86.57
2023-03-26T10:50:28.818Z,86.98
2023-03-26T10:51:28.826Z,87.29
2023-03-26T10:52:28.780Z,87.49
2023-03-26T10:53:28.745Z,87.70
2023-03-26T10:54:28.780Z,87.63
2023-03-26T10:55:28.782Z,87.73
2023-03-26T10:56:28.822Z,88.14
2023-03-26T10:57:28.757Z,88.24
2023-03-26T10:58:28.725Z,88.14
2023-03-26T10:59:28.784Z,88.24
2023-03-26T11:00:28.694Z,88.14
2023-03-26T11:01:28.780Z,87.94
2023-03-26T11:02:29.637Z,87.94
2023-03-26T11:03:29.603Z,88.04
2023-03-26T11:04:28.734Z,88.04
2023-03-26T11:05:28.838Z,88.24
2023-03-26T11:06:28.642Z,88.39
2023-03-26T11:07:28.653Z,88.29
2023-03-26T11:08:31.929Z,88.49
2023-03-26T11:09:28.586Z,88.59
2023-03-26T11:10:28.603Z,88.49
2023-03-26T11:11:28.569Z,88.18
2023-03-26T11:12:28.711Z,88.29
2023-03-26T11:13:28.611Z,88.49
2023-03-26T11:14:34.891Z,88.18
2023-03-26T11:15:29.594Z,87.98
2023-03-26T11:16:28.537Z,87.67
2023-03-26T11:17:40.917Z,87.57
2023-03-26T11:18:29.525Z,87.77
2023-03-26T11:19:28.486Z,87.88
2023-03-26T11:20:28.503Z,87.77
2023-03-26T11:21:28.483Z,87.77
2023-03-26T11:22:29.005Z,87.98
2023-03-26T11:23:28.446Z,88.08
2023-03-26T11:24:28.426Z,88.29
2023-03-26T11:25:28.402Z,88.49
2023-03-26T11:26:28.450Z,88.70
2023-03-26T11:27:28.388Z,88.90
2023-03-26T11:28:28.470Z,88.18
2023-03-26T11:29:31.143Z,88.08
2023-03-26T11:30:28.384Z,87.88
2023-03-26T11:31:29.194Z,86.14
2023-03-26T11:32:29.861Z,85.72
2023-03-26T11:33:32.636Z,86.55
2023-03-26T11:34:29.800Z,86.75
2023-03-26T11:35:42.525Z,85.72
2023-03-26T11:36:29.364Z,85.52
2023-03-26T11:37:28.338Z,85.42
2023-03-26T11:38:28.455Z,84.91
2023-03-26T11:39:28.583Z,84.39
2023-03-26T11:40:29.036Z,84.39
2023-03-26T11:41:28.458Z,84.60
2023-03-26T11:42:28.328Z,83.98
2023-03-26T11:43:28.343Z,83.41
2023-03-26T11:44:28.215Z,83.72
2023-03-26T11:45:28.217Z,84.44
2023-03-26T11:46:28.240Z,84.33
2023-03-26T11:47:28.254Z,84.03
2023-03-26T11:48:28.207Z,84.95
2023-03-26T11:49:28.152Z,86.28
2023-03-26T11:50:28.167Z,86.79
2023-03-26T11:51:28.161Z,86.90
2023-03-26T11:52:28.207Z,86.69
2023-03-26T11:53:28.104Z,86.58
2023-03-26T11:54:28.099Z,86.69
2023-03-26T11:55:28.069Z,86.90
2023-03-26T11:56:28.098Z,86.79
2023-03-26T11:57:28.092Z,86.69
2023-03-26T11:58:28.052Z,86.69
2023-03-26T11:59:28.029Z,87.51
2023-03-26T12:00:28.054Z,87.82
2023-03-26T12:01:28.011Z,87.92
2023-03-26T12:02:28.045Z,87.71
2023-03-26T12:03:27.989Z,87.82
2023-03-26T12:04:30.025Z,87.82
2023-03-26T12:05:27.962Z,87.92
2023-03-26T12:06:28.044Z,88.12
2023-03-26T12:07:28.053Z,88.53
2023-03-26T12:08:28.053Z,88.84
2023-03-26T12:09:27.951Z,88.84
2023-03-26T12:10:27.935Z,88.74
2023-03-26T12:11:27.885Z,88.74
2023-03-26T12:12:28.002Z,88.53
2023-03-26T12:13:27.846Z,88.33
2023-03-26T12:14:27.867Z,88.33
2023-03-26T12:15:27.859Z,88.53
2023-03-26T12:16:27.964Z,88.74
2023-03-26T12:17:31.473Z,89.04
2023-03-26T12:18:27.861Z,89.25
2023-03-26T12:19:29.303Z,89.04
2023-03-26T12:20:27.818Z,88.74
2023-03-26T12:21:27.780Z,88.74
2023-03-26T12:22:27.811Z,89.15
2023-03-26T12:23:27.822Z,89.36
2023-03-26T12:24:27.766Z,88.94
2023-03-26T12:25:27.756Z,89.04
2023-03-26T12:26:27.715Z,89.15
2023-03-26T12:27:27.762Z,89.56
2023-03-26T12:28:27.701Z,89.66
2023-03-26T12:29:27.709Z,89.87
2023-03-26T12:30:27.702Z,89.66
2023-03-26T12:31:27.674Z,89.45
2023-03-26T12:32:35.731Z,89.66
2023-03-26T12:33:29.687Z,89.66
2023-03-26T12:34:27.659Z,89.25
2023-03-26T12:35:27.763Z,88.23
2023-03-26T12:36:27.630Z,87.61
2023-03-26T12:37:27.639Z,87.30
2023-03-26T12:38:27.625Z,86.58
2023-03-26T12:40:09.854Z,86.83
2023-03-26T12:40:28.544Z,87.04
2023-03-26T12:44:43.120Z,86.83
2023-03-26T12:44:44.118Z,86.42
2023-03-26T12:44:48.895Z,86.93
2023-03-26T12:44:49.409Z,86.52
2023-03-26T12:45:28.556Z,86.73
2023-03-26T12:47:57.023Z,86.63
2023-03-26T12:48:00.199Z,86.63
2023-03-26T12:48:28.567Z,86.73
2023-03-26T12:49:27.973Z,86.63
2023-03-26T12:50:34.455Z,86.73
2023-03-26T12:51:29.222Z,86.73
2023-03-26T12:52:28.876Z,86.93